createdAt,value
2023-02-12T00:00:52.119Z,110.25
2023-02-12T00:03:19.071Z,134.00
2023-02-12T00:05:45.827Z,129.25
2023-02-12T00:08:14.282Z,132.00
2023-02-12T00:10:43.228Z,139.75
2023-02-12T00:13:14.996Z,133.75
2023-02-12T00:15:42.948Z,133.75
2023-02-12T00:18:10.031Z,107.25
2023-02-12T00:20:38.057Z,119.50
2023-02-12T00:23:06.175Z,98.50
2023-02-12T00:25:33.742Z,96.00
2023-02-12T00:28:00.613Z,95.75
2023-02-12T00:30:27.514Z,104.75
2023-02-12T00:32:55.501Z,113.50
2023-02-12T00:35:22.192Z,121.50
2023-02-12T00:37:50.374Z,124.75
2023-02-12T00:40:17.211Z,102.00
2023-02-12T00:42:44.041Z,95.50
2023-02-12T00:45:10.889Z,93.25
2023-02-12T00:47:37.599Z,122.00
2023-02-12T00:50:04.504Z,113.50
2023-02-12T00:52:31.267Z,115.00
2023-02-12T00:54:58.038Z,112.25
2023-02-12T00:57:25.331Z,105.50
2023-02-12T00:59:52.098Z,103.25
2023-02-12T01:02:18.902Z,98.25
2023-02-12T01:04:47.101Z,85.25
2023-02-12T01:07:14.007Z,86.00
2023-02-12T01:09:40.746Z,87.00
2023-02-12T01:12:08.037Z,87.00
2023-02-12T01:14:34.915Z,88.50
2023-02-12T01:17:03.781Z,84.50
2023-02-12T01:19:30.500Z,89.50
2023-02-12T01:21:57.469Z,85.75
2023-02-12T01:24:24.278Z,84.25
2023-02-12T01:26:50.995Z,69.75
2023-02-12T01:29:17.748Z,70.75
2023-02-12T01:31:44.637Z,86.00
2023-02-12T01:34:12.513Z,90.50
2023-02-12T01:36:39.793Z,92.00
2023-02-12T01:39:07.193Z,81.50
2023-02-12T01:41:37.063Z,90.00
2023-02-12T01:44:15.717Z,92.50
2023-02-12T01:46:45.268Z,89.00
2023-02-12T01:49:25.936Z,94.25
2023-02-12T01:52:01.033Z,84.75
2023-02-12T01:54:30.354Z,87.25
2023-02-12T01:57:00.317Z,66.25
2023-02-12T01:59:27.747Z,80.00
2023-02-12T02:01:55.712Z,76.50
2023-02-12T02:04:27.333Z,68.50
2023-02-12T02:07:04.109Z,67.50
2023-02-12T02:09:34.750Z,65.50
2023-02-12T02:12:20.286Z,62.25
2023-02-12T02:14:49.349Z,61.50
2023-02-12T02:17:33.483Z,53.25
2023-02-12T02:20:06.469Z,73.50
2023-02-12T02:22:54.937Z,67.50
2023-02-12T02:25:58.749Z,65.25
2023-02-12T02:28:57.050Z,84.50
2023-02-12T02:31:31.429Z,95.50
2023-02-12T02:34:16.161Z,98.00
2023-02-12T02:37:18.320Z,100.25
2023-02-12T02:39:59.515Z,99.50
2023-02-12T02:42:43.873Z,80.25
2023-02-12T02:45:37.878Z,99.75
2023-02-12T02:48:17.457Z,94.00
2023-02-12T02:50:49.759Z,90.50
2023-02-12T02:53:31.351Z,92.50
2023-02-12T02:56:01.563Z,90.75
2023-02-12T02:58:35.826Z,89.25
2023-02-12T03:01:31.274Z,87.00
2023-02-12T03:04:06.401Z,90.25
2023-02-12T03:06:59.434Z,97.50
2023-02-12T03:09:34.796Z,92.00
2023-02-12T03:12:06.515Z,94.75
2023-02-12T03:14:39.472Z,103.25
2023-02-12T03:17:11.045Z,96.25
2023-02-12T03:19:44.940Z,92.75
2023-02-12T03:22:19.417Z,95.50
2023-02-12T03:24:55.910Z,106.00
2023-02-12T03:27:33.796Z,104.00
2023-02-12T03:30:01.619Z,102.00
2023-02-12T03:33:08.141Z,107.00
2023-02-12T03:35:42.025Z,107.75
2023-02-12T03:38:27.355Z,109.50
2023-02-12T03:41:19.409Z,98.00
2023-02-12T03:43:54.638Z,77.75
2023-02-12T03:46:27.692Z,90.75
2023-02-12T03:49:16.494Z,86.00
2023-02-12T03:51:45.195Z,98.25
2023-02-12T03:54:16.463Z,93.50
2023-02-12T03:56:52.186Z,90.25
2023-02-12T03:59:23.911Z,95.00
2023-02-12T04:01:53.789Z,96.75
2023-02-12T04:04:21.072Z,89.00
2023-02-12T04:06:50.456Z,100.25
2023-02-12T04:09:17.759Z,87.50
2023-02-12T04:11:44.419Z,87.75
2023-02-12T04:14:27.015Z,86.25
2023-02-12T04:17:09.843Z,85.75
2023-02-12T04:20:10.963Z,77.75
2023-02-12T04:22:45.456Z,79.00
2023-02-12T04:25:17.534Z,69.50
2023-02-12T04:27:44.242Z,77.00
2023-02-12T04:30:24.090Z,77.25
2023-02-12T04:32:57.088Z,85.00
2023-02-12T04:35:32.528Z,84.00
2023-02-12T04:38:21.723Z,81.00
2023-02-12T04:40:49.880Z,82.00
2023-02-12T04:43:30.511Z,89.75
2023-02-12T04:45:57.804Z,84.25
2023-02-12T04:48:24.837Z,77.75
2023-02-12T04:50:51.554Z,80.00
2023-02-12T04:53:18.914Z,77.25
2023-02-12T04:55:45.762Z,77.75
2023-02-12T04:58:12.552Z,84.25
2023-02-12T05:00:39.657Z,83.25
2023-02-12T05:03:06.533Z,92.00
2023-02-12T05:05:33.454Z,87.50
2023-02-12T05:08:00.248Z,83.25
2023-02-12T05:10:27.477Z,89.75
2023-02-12T05:12:55.553Z,87.50
2023-02-12T05:15:22.843Z,95.25
2023-02-12T05:17:49.741Z,91.00
2023-02-12T05:20:16.742Z,88.00
2023-02-12T05:22:43.534Z,84.00
2023-02-12T05:25:10.375Z,76.00
2023-02-12T05:27:37.159Z,99.25
2023-02-12T05:30:05.836Z,95.00
2023-02-12T05:32:32.724Z,97.50
2023-02-12T05:34:59.494Z,90.50
2023-02-12T05:37:26.391Z,85.50
2023-02-12T05:39:53.973Z,85.50
2023-02-12T05:42:21.037Z,87.75
2023-02-12T05:44:47.841Z,75.25
2023-02-12T05:47:14.614Z,84.00
2023-02-12T05:49:42.840Z,85.75
2023-02-12T05:52:09.633Z,91.25
2023-02-12T05:54:36.382Z,93.50
2023-02-12T05:57:03.279Z,105.75
2023-02-12T05:59:30.226Z,95.00
2023-02-12T06:01:57.018Z,90.50
2023-02-12T06:04:26.900Z,87.25
2023-02-12T06:06:55.783Z,93.50
2023-02-12T06:09:23.484Z,103.50
2023-02-12T06:11:50.224Z,89.50
2023-02-12T06:14:19.276Z,79.75
2023-02-12T06:16:48.346Z,99.50
2023-02-12T06:19:15.276Z,112.25
2023-02-12T06:21:42.424Z,113.25
2023-02-12T06:24:12.228Z,99.75
2023-02-12T06:26:39.156Z,104.50
2023-02-12T06:29:06.155Z,111.25
2023-02-12T06:31:35.540Z,112.25
2023-02-12T06:34:06.687Z,110.75
2023-02-12T06:36:34.370Z,102.50
2023-02-12T06:39:02.849Z,100.75
2023-02-12T06:41:29.861Z,118.25
2023-02-12T06:43:56.829Z,141.50
2023-02-12T06:46:23.956Z,119.00
2023-02-12T06:48:55.331Z,118.00
2023-02-12T06:51:23.510Z,119.00
2023-02-12T06:53:52.606Z,121.50
2023-02-12T06:56:20.843Z,130.75
2023-02-12T06:58:52.146Z,128.50
2023-02-12T07:01:21.724Z,98.75
2023-02-12T07:04:11.030Z,83.50
2023-02-12T07:06:37.923Z,92.25
2023-02-12T07:09:05.321Z,117.25
2023-02-12T07:11:37.520Z,82.00
2023-02-12T07:14:05.257Z,93.75
2023-02-12T07:16:32.112Z,76.00
2023-02-12T07:18:58.889Z,74.75
2023-02-12T07:21:25.618Z,98.25
2023-02-12T07:23:53.974Z,93.50
2023-02-12T07:26:21.969Z,78.25
2023-02-12T07:28:50.044Z,76.25
2023-02-12T07:31:19.803Z,118.75
2023-02-12T07:33:47.568Z,101.25
2023-02-12T07:36:17.505Z,98.50
2023-02-12T07:38:44.617Z,88.25
2023-02-12T07:41:19.620Z,85.00
2023-02-12T07:43:48.237Z,88.25
2023-02-12T07:46:19.327Z,86.50
2023-02-12T07:48:47.186Z,111.25
2023-02-12T07:51:16.904Z,123.75
2023-02-12T07:53:43.702Z,127.75
2023-02-12T07:56:19.864Z,130.50
2023-02-12T07:58:49.049Z,126.00
2023-02-12T08:01:15.756Z,133.50
2023-02-12T08:03:43.257Z,127.50
2023-02-12T08:06:21.650Z,142.50
2023-02-12T08:08:50.405Z,138.50
2023-02-12T08:11:17.976Z,157.25
2023-02-12T08:13:45.868Z,142.75
2023-02-12T08:16:24.018Z,149.75
2023-02-12T08:18:51.700Z,129.50
2023-02-12T08:21:21.143Z,131.25
2023-02-12T08:23:51.750Z,132.50
2023-02-12T08:26:29.001Z,137.00
2023-02-12T08:29:02.435Z,135.00
2023-02-12T08:31:32.064Z,134.25
2023-02-12T08:33:59.787Z,145.50
2023-02-12T08:36:45.212Z,143.00
2023-02-12T08:39:12.704Z,155.25
2023-02-12T08:41:39.973Z,155.00
2023-02-12T08:44:06.914Z,142.25
2023-02-12T08:46:36.328Z,126.75
2023-02-12T08:49:15.085Z,133.75
2023-02-12T08:51:45.097Z,122.75
2023-02-12T08:54:14.667Z,137.00
2023-02-12T08:56:42.245Z,137.25
2023-02-12T08:59:09.936Z,127.25
2023-02-12T09:01:38.739Z,123.75
2023-02-12T09:04:06.616Z,131.75
2023-02-12T09:06:35.317Z,143.25
2023-02-12T09:09:02.835Z,156.00
2023-02-12T09:11:32.730Z,152.00
2023-02-12T09:14:02.175Z,157.75
2023-02-12T09:16:31.138Z,156.00
2023-02-12T09:18:58.181Z,191.75
2023-02-12T09:21:25.627Z,173.20
2023-02-12T09:23:53.193Z,171.00
2023-02-12T09:26:22.632Z,174.20
2023-02-12T09:28:50.609Z,175.50
2023-02-12T09:31:26.445Z,173.75
2023-02-12T09:33:58.073Z,190.75
2023-02-12T09:36:25.697Z,174.80
2023-02-12T09:38:54.228Z,182.40
2023-02-12T09:41:53.194Z,176.75
2023-02-12T09:44:44.366Z,183.20
2023-02-12T09:47:24.084Z,179.40
2023-02-12T09:50:09.471Z,176.00
2023-02-12T09:52:37.395Z,184.80
2023-02-12T09:55:04.808Z,185.50
2023-02-12T09:57:36.392Z,195.50
2023-02-12T10:00:16.463Z,209.60
2023-02-12T10:02:43.355Z,216.80
2023-02-12T10:05:19.491Z,203.40
2023-02-12T10:07:53.656Z,199.40
2023-02-12T10:10:51.598Z,199.00
2023-02-12T10:13:58.484Z,207.20
2023-02-12T10:16:42.036Z,195.20
2023-02-12T10:19:17.587Z,191.25
2023-02-12T10:21:55.388Z,198.00
2023-02-12T10:24:54.520Z,191.00
2023-02-12T10:27:34.780Z,211.00
2023-02-12T10:30:13.840Z,211.80
2023-02-12T10:32:44.707Z,190.40
2023-02-12T10:35:17.285Z,201.80
2023-02-12T10:37:57.595Z,201.80
2023-02-12T10:40:29.980Z,214.20
2023-02-12T10:42:58.356Z,212.60
2023-02-12T10:45:37.841Z,230.20
2023-02-12T10:48:17.881Z,207.40
2023-02-12T10:51:02.754Z,213.33
2023-02-12T10:53:36.233Z,214.40
2023-02-12T10:56:12.240Z,209.60
2023-02-12T10:58:51.009Z,216.80
2023-02-12T11:01:26.287Z,215.40
2023-02-12T11:03:54.518Z,214.60
2023-02-12T11:06:25.839Z,216.20
2023-02-12T11:08:52.957Z,206.80
2023-02-12T11:11:26.307Z,219.00
2023-02-12T11:14:04.943Z,219.00
2023-02-12T11:16:38.368Z,226.80
2023-02-12T11:19:20.585Z,223.00
2023-02-12T11:21:47.789Z,169.80
2023-02-12T11:24:26.735Z,182.75
2023-02-12T11:27:11.318Z,201.40
2023-02-12T11:29:38.157Z,182.00
2023-02-12T11:32:08.700Z,187.00
2023-02-12T11:34:36.796Z,194.80
2023-02-12T11:37:05.241Z,201.20
2023-02-12T11:39:36.121Z,196.00
2023-02-12T11:42:06.916Z,193.60
2023-02-12T11:44:40.217Z,211.40
2023-02-12T11:47:10.621Z,210.80
2023-02-12T11:50:16.100Z,204.40
2023-02-12T11:52:43.323Z,215.80
2023-02-12T11:55:24.811Z,230.20
2023-02-12T11:57:54.421Z,232.60
2023-02-12T12:00:25.007Z,220.20
2023-02-12T12:03:02.529Z,240.83
2023-02-12T12:05:36.352Z,219.00
2023-02-12T12:08:12.494Z,228.80
2023-02-12T12:10:51.805Z,245.60
2023-02-12T12:13:26.001Z,224.00
2023-02-12T12:16:23.474Z,237.20
2023-02-12T12:19:33.803Z,228.40
2023-02-12T12:22:14.660Z,216.40
2023-02-12T12:24:52.265Z,213.00
2023-02-12T12:27:46.147Z,223.20
2023-02-12T12:30:24.532Z,224.50
2023-02-12T12:32:54.116Z,221.40
2023-02-12T12:35:30.367Z,218.25
2023-02-12T12:38:54.043Z,188.25
2023-02-12T12:41:48.141Z,217.60
2023-02-12T12:44:14.879Z,237.50
2023-02-12T12:47:13.480Z,228.83
2023-02-12T12:50:09.375Z,224.00
2023-02-12T12:52:43.201Z,224.80
2023-02-12T12:55:15.861Z,235.00
2023-02-12T12:57:45.648Z,184.40
2023-02-12T13:00:15.044Z,214.40
2023-02-12T13:03:05.887Z,217.80
2023-02-12T13:05:50.728Z,228.40
2023-02-12T13:08:35.273Z,232.75
2023-02-12T13:11:08.149Z,229.40
2023-02-12T13:13:42.210Z,241.60
2023-02-12T13:16:44.150Z,221.80
2023-02-12T13:19:16.799Z,218.20
2023-02-12T13:21:46.136Z,239.80
2023-02-12T13:24:45.029Z,229.00
2023-02-12T13:27:20.288Z,229.60
2023-02-12T13:29:53.190Z,210.60
2023-02-12T13:32:28.475Z,236.80
2023-02-12T13:34:57.072Z,234.80
2023-02-12T13:37:48.784Z,244.00
2023-02-12T13:40:30.094Z,247.40
2023-02-12T13:43:17.401Z,230.60
2023-02-12T13:46:03.391Z,225.00
2023-02-12T13:48:43.264Z,228.00
2023-02-12T13:51:46.931Z,236.50
2023-02-12T13:54:36.411Z,236.00
2023-02-12T13:57:08.407Z,226.33
2023-02-12T13:59:35.167Z,218.33
2023-02-12T14:02:06.085Z,228.33
2023-02-12T14:04:40.223Z,231.67
2023-02-12T14:07:08.222Z,238.50
2023-02-12T14:09:41.087Z,214.40
2023-02-12T14:12:13.223Z,226.40
2023-02-12T14:14:47.173Z,218.80
2023-02-12T14:17:29.152Z,220.40
2023-02-12T14:20:05.106Z,204.00
2023-02-12T14:22:31.830Z,223.00
2023-02-12T14:25:01.391Z,222.60
2023-02-12T14:27:34.111Z,234.40
2023-02-12T14:30:11.134Z,235.80
2023-02-12T14:32:59.650Z,222.80
2023-02-12T14:35:26.443Z,236.20
2023-02-12T14:38:00.374Z,220.00
2023-02-12T14:40:34.519Z,225.60
2023-02-12T14:43:04.245Z,230.40
2023-02-12T14:45:32.591Z,228.80
2023-02-12T14:48:00.094Z,247.40
2023-02-12T14:50:35.928Z,228.80
2023-02-12T14:53:27.782Z,231.00
2023-02-12T14:55:56.400Z,233.80
2023-02-12T14:58:25.986Z,229.80
2023-02-12T15:00:56.477Z,233.50
2023-02-12T15:03:29.897Z,202.40
2023-02-12T15:06:09.832Z,212.20
2023-02-12T15:08:49.140Z,230.20
2023-02-12T15:11:45.233Z,217.67
2023-02-12T15:14:44.087Z,227.00
2023-02-12T15:17:25.125Z,225.83
2023-02-12T15:20:06.150Z,224.50
2023-02-12T15:22:43.527Z,226.80
2023-02-12T15:25:28.115Z,231.83
2023-02-12T15:28:06.886Z,237.83
2023-02-12T15:30:36.637Z,222.40
2023-02-12T15:33:07.829Z,225.40
2023-02-12T15:35:38.117Z,236.60
2023-02-12T15:38:07.842Z,226.20
2023-02-12T15:40:34.820Z,228.00
2023-02-12T15:43:04.484Z,235.40
2023-02-12T15:45:35.072Z,204.00
2023-02-12T15:48:23.335Z,229.20
2023-02-12T15:51:16.277Z,212.50
2023-02-12T15:53:44.082Z,215.80
2023-02-12T15:56:17.818Z,218.40
2023-02-12T15:58:50.629Z,217.60
2023-02-12T16:01:20.494Z,238.00
2023-02-12T16:03:52.884Z,240.25
2023-02-12T16:06:22.223Z,224.67
2023-02-12T16:09:15.045Z,226.00
2023-02-12T16:11:45.579Z,221.00
2023-02-12T16:14:46.543Z,250.50
2023-02-12T16:17:25.117Z,245.40
2023-02-12T16:19:57.962Z,238.20
2023-02-12T16:22:29.257Z,253.50
2023-02-12T16:24:56.660Z,244.80
2023-02-12T16:27:27.786Z,227.40
2023-02-12T16:29:57.874Z,249.40
2023-02-12T16:32:33.666Z,258.60
2023-02-12T16:35:07.235Z,235.00
2023-02-12T16:37:36.885Z,246.40
2023-02-12T16:40:12.709Z,231.60
2023-02-12T16:42:48.669Z,245.60
2023-02-12T16:45:27.687Z,239.80
2023-02-12T16:47:59.570Z,248.50
2023-02-12T16:50:30.435Z,230.33
2023-02-12T16:53:03.065Z,228.17
2023-02-12T16:55:30.058Z,228.20
2023-02-12T16:57:56.847Z,240.25
2023-02-12T17:00:24.132Z,239.20
2023-02-12T17:02:50.989Z,254.40
2023-02-12T17:05:18.516Z,248.80
2023-02-12T17:07:45.417Z,227.40
2023-02-12T17:10:13.706Z,224.80
2023-02-12T17:12:51.594Z,236.20
2023-02-12T17:15:29.515Z,231.50
2023-02-12T17:17:56.298Z,232.17
2023-02-12T17:20:23.111Z,213.00
2023-02-12T17:22:55.206Z,232.00
2023-02-12T17:25:22.021Z,219.80
2023-02-12T17:27:48.845Z,225.75
2023-02-12T17:30:18.518Z,226.60
2023-02-12T17:32:45.313Z,215.80
2023-02-12T17:35:12.115Z,226.50
2023-02-12T17:37:38.894Z,244.60
2023-02-12T17:40:06.944Z,243.40
2023-02-12T17:42:33.858Z,232.20
2023-02-12T17:45:00.794Z,241.40
2023-02-12T17:47:27.589Z,235.75
2023-02-12T17:49:54.414Z,215.80
2023-02-12T17:52:21.245Z,231.80
2023-02-12T17:54:48.032Z,223.40
2023-02-12T17:57:15.072Z,208.80
2023-02-12T17:59:42.108Z,223.60
2023-02-12T18:02:11.449Z,226.83
2023-02-12T18:04:38.473Z,229.33
2023-02-12T18:07:06.337Z,229.00
2023-02-12T18:09:33.142Z,235.40
2023-02-12T18:12:00.009Z,230.40
2023-02-12T18:14:26.742Z,238.00
2023-02-12T18:16:53.574Z,250.50
2023-02-12T18:19:20.474Z,234.33
2023-02-12T18:21:47.698Z,243.50
2023-02-12T18:24:14.435Z,230.60
2023-02-12T18:26:41.212Z,232.80
2023-02-12T18:29:08.217Z,249.00
2023-02-12T18:31:35.716Z,250.00
2023-02-12T18:34:04.940Z,236.20
2023-02-12T18:36:31.948Z,248.40
2023-02-12T18:39:01.023Z,247.00
2023-02-12T18:41:30.984Z,240.60
2023-02-12T18:43:59.486Z,211.00
2023-02-12T18:46:28.905Z,219.60
2023-02-12T18:48:56.538Z,267.40
2023-02-12T18:51:26.516Z,227.50
2023-02-12T18:54:01.448Z,227.80
2023-02-12T18:56:30.153Z,216.50
2023-02-12T18:59:02.695Z,195.80
2023-02-12T19:01:29.587Z,227.60
2023-02-12T19:03:59.107Z,241.80
2023-02-12T19:06:27.513Z,233.40
2023-02-12T19:08:59.149Z,251.33
2023-02-12T19:11:27.503Z,229.17
2023-02-12T19:13:54.922Z,224.33
2023-02-12T19:16:23.839Z,233.00
2023-02-12T19:18:54.774Z,211.60
2023-02-12T19:21:26.102Z,241.83
2023-02-12T19:23:58.712Z,227.00
2023-02-12T19:26:25.861Z,205.00
2023-02-12T19:28:53.722Z,217.80
2023-02-12T19:31:23.621Z,225.60
2023-02-12T19:33:55.225Z,232.20
2023-02-12T19:36:22.029Z,224.17
2023-02-12T19:38:49.157Z,235.40
2023-02-12T19:41:19.150Z,233.25
2023-02-12T19:43:46.548Z,235.60
2023-02-12T19:46:16.343Z,238.17
2023-02-12T19:48:44.271Z,220.60
2023-02-12T19:51:19.987Z,231.33
2023-02-12T19:53:47.829Z,219.17
2023-02-12T19:56:15.931Z,227.60
2023-02-12T19:58:42.992Z,227.00
2023-02-12T20:01:12.057Z,208.20
2023-02-12T20:03:39.627Z,237.40
2023-02-12T20:06:12.265Z,237.25
2023-02-12T20:08:40.576Z,228.75
2023-02-12T20:11:09.870Z,210.00
2023-02-12T20:13:37.385Z,225.40
2023-02-12T20:16:07.170Z,231.00
2023-02-12T20:18:34.865Z,218.20
2023-02-12T20:21:08.976Z,235.75
2023-02-12T20:23:36.456Z,229.20
2023-02-12T20:26:08.408Z,238.00
2023-02-12T20:28:36.522Z,232.00
2023-02-12T20:31:11.808Z,240.60
2023-02-12T20:33:39.775Z,228.00
2023-02-12T20:36:08.041Z,245.80
2023-02-12T20:38:35.855Z,241.40
2023-02-12T20:41:04.549Z,247.80
2023-02-12T20:43:34.462Z,241.80
2023-02-12T20:46:10.418Z,230.80
2023-02-12T20:48:38.792Z,222.83
2023-02-12T20:51:09.777Z,238.00
2023-02-12T20:53:36.966Z,234.50
2023-02-12T20:56:10.454Z,253.00
2023-02-12T20:58:44.689Z,220.50
2023-02-12T21:01:18.570Z,238.50
2023-02-12T21:03:45.627Z,238.67
2023-02-12T21:06:12.619Z,237.80
2023-02-12T21:08:41.803Z,233.80
2023-02-12T21:11:14.728Z,234.33
2023-02-12T21:13:50.337Z,234.00
2023-02-12T21:16:35.650Z,227.50
2023-02-12T21:19:02.870Z,208.25
2023-02-12T21:21:33.287Z,210.80
2023-02-12T21:24:01.566Z,174.40
2023-02-12T21:26:30.774Z,172.67
2023-02-12T21:28:59.670Z,218.80
2023-02-12T21:31:45.776Z,209.00
2023-02-12T21:34:20.042Z,211.00
2023-02-12T21:36:48.379Z,208.20
2023-02-12T21:39:25.012Z,216.80
2023-02-12T21:42:03.420Z,200.20
2023-02-12T21:44:32.855Z,192.50
2023-02-12T21:46:59.887Z,214.40
2023-02-12T21:49:28.202Z,242.40
2023-02-12T21:52:05.310Z,232.40
2023-02-12T21:54:33.891Z,240.60
2023-02-12T21:57:01.020Z,244.00
2023-02-12T21:59:31.908Z,239.40
2023-02-12T22:01:59.372Z,228.20
2023-02-12T22:04:26.723Z,227.75
2023-02-12T22:06:54.633Z,226.25
2023-02-12T22:09:22.746Z,230.50
2023-02-12T22:11:52.052Z,230.80
2023-02-12T22:14:20.364Z,230.60
2023-02-12T22:16:47.876Z,218.80
2023-02-12T22:19:16.175Z,233.40
2023-02-12T22:21:44.386Z,240.20
2023-02-12T22:24:14.334Z,229.00
2023-02-12T22:26:41.220Z,225.60
2023-02-12T22:29:14.590Z,214.00
2023-02-12T22:31:44.208Z,235.00
2023-02-12T22:34:14.381Z,214.20
2023-02-12T22:36:42.461Z,216.20
2023-02-12T22:39:12.985Z,198.60
2023-02-12T22:41:40.580Z,191.50
2023-02-12T22:44:11.612Z,209.75
2023-02-12T22:46:39.574Z,219.20
2023-02-12T22:49:06.862Z,210.80
2023-02-12T22:51:37.032Z,183.00
2023-02-12T22:54:06.558Z,221.80
2023-02-12T22:56:34.513Z,198.60
2023-02-12T22:59:03.662Z,160.50
2023-02-12T23:01:31.908Z,168.00
2023-02-12T23:03:58.950Z,176.50
2023-02-12T23:06:29.614Z,173.50
2023-02-12T23:09:00.362Z,199.25
2023-02-12T23:11:29.929Z,206.00
2023-02-12T23:13:57.446Z,214.20
2023-02-12T23:16:25.232Z,195.60
2023-02-12T23:18:59.974Z,207.40
2023-02-12T23:21:28.913Z,220.20
2023-02-12T23:23:56.234Z,213.25
2023-02-12T23:26:23.280Z,230.40
2023-02-12T23:28:50.160Z,175.25
2023-02-12T23:31:17.421Z,158.75
2023-02-12T23:33:44.624Z,149.25
2023-02-12T23:36:11.450Z,170.00
2023-02-12T23:38:38.200Z,165.25
2023-02-12T23:41:05.285Z,146.00
2023-02-12T23:43:32.980Z,193.75
2023-02-12T23:46:00.354Z,182.00
2023-02-12T23:48:27.275Z,176.25
2023-02-12T23:50:54.049Z,184.80
2023-02-12T23:53:22.434Z,173.80
2023-02-12T23:55:51.223Z,178.40
2023-02-12T23:58:18.184Z,177.60
